Time;durP1;ratioP1;P1;durP2;ratioP2;P2;SDS_P1;SDS_P2;PMS_P1;PMS_P2;Temp;Humidity;BMP_temperature;BMP_pressure;BME280_temperature;BME280_humidity;BME280_pressure;Samples;Min_cycle;Max_cycle;Signal;HPM_P1;HPM_P2
2022/02/08 00:00:04;;;;;;;3.30;1.42;;;5.60;73.60;;;;;;2321261;55;21654;-72
2022/02/08 00:02:33;;;;;;;4.75;1.70;;;5.60;73.60;;;;;;2287135;55;21442;-73
2022/02/08 00:05:00;;;;;;;4.25;1.62;;;5.60;73.60;;;;;;2287720;56;20936;-73
2022/02/08 00:07:28;;;;;;;4.37;1.48;;;5.70;73.60;;;;;;2287492;56;21448;-71
2022/02/08 00:09:54;;;;;;;3.33;1.27;;;5.70;73.60;;;;;;2287378;56;20957;-72
2022/02/08 00:12:20;;;;;;;4.37;1.23;;;5.70;73.40;;;;;;2500959;54;21559;-74
2022/02/08 00:14:48;;;;;;;4.35;1.12;;;5.80;73.50;;;;;;2287580;56;21021;-72
2022/02/08 00:17:14;;;;;;;3.80;1.23;;;5.80;73.50;;;;;;2287359;56;21012;-72
2022/02/08 00:19:40;;;;;;;3.85;1.25;;;5.80;73.50;;;;;;2325738;54;21465;-72
2022/02/08 00:22:07;;;;;;;6.07;1.45;;;5.80;73.50;;;;;;2287257;56;20981;-72
2022/02/08 00:24:33;;;;;;;4.03;1.10;;;5.90;73.60;;;;;;2286844;55;21504;-72
2022/02/08 00:27:00;;;;;;;5.22;1.12;;;5.90;73.50;;;;;;2287372;56;21468;-72
2022/02/08 00:29:26;;;;;;;4.80;1.33;;;5.90;73.60;;;;;;2289858;55;20968;-71
2022/02/08 00:31:52;;;;;;;4.12;0.95;;;6.00;73.70;;;;;;2287501;56;20996;-71
2022/02/08 00:34:18;;;;;;;3.95;1.10;;;6.00;73.70;;;;;;2302305;55;21793;-73
2022/02/08 00:36:45;;;;;;;5.85;1.05;;;6.00;73.70;;;;;;2287623;56;21468;-74
2022/02/08 00:39:11;;;;;;;4.07;1.10;;;6.10;73.70;;;;;;2287807;55;21617;-72
2022/02/08 00:41:39;;;;;;;3.20;1.10;;;6.10;73.80;;;;;;2288069;55;20982;-71
2022/02/08 00:44:10;;;;;;;6.50;1.10;;;6.20;73.80;;;;;;2287475;55;20968;-72
2022/02/08 00:47:00;;;;;;;4.90;1.10;;;6.20;73.80;;;;;;2286814;55;21213;-73
2022/02/08 00:49:32;;;;;;;5.03;1.00;;;6.20;73.70;;;;;;2288181;56;21453;-72
2022/02/08 00:52:06;;;;;;;5.30;1.00;;;6.30;73.70;;;;;;2376417;55;20996;-72
2022/02/08 00:54:32;;;;;;;5.32;1.00;;;6.30;73.60;;;;;;2343517;55;21606;-71
2022/02/08 00:56:58;;;;;;;3.80;0.90;;;6.40;73.70;;;;;;2287576;55;20968;-71
2022/02/08 00:59:25;;;;;;;3.22;0.82;;;6.40;73.60;;;;;;2290625;55;21004;-72
2022/02/08 01:01:51;;;;;;;4.10;1.00;;;6.40;73.50;;;;;;2292532;55;20971;-73
2022/02/08 01:04:18;;;;;;;5.80;1.08;;;6.40;73.40;;;;;;2276669;55;20936;-72
2022/02/08 01:06:47;;;;;;;3.40;1.00;;;6.40;73.30;;;;;;2289130;55;20950;-72
2022/02/08 01:09:19;;;;;;;3.15;0.90;;;6.40;73.10;;;;;;2292056;55;20909;-74
2022/02/08 01:11:47;;;;;;;4.57;1.33;;;6.50;73.10;;;;;;2289816;56;21036;-74
2022/02/08 01:14:14;;;;;;;5.15;1.10;;;6.50;72.90;;;;;;2289685;56;20929;-72
2022/02/08 01:16:41;;;;;;;2.58;0.90;;;6.50;72.90;;;;;;2288434;55;20961;-70
2022/02/08 01:19:08;;;;;;;3.05;0.95;;;6.50;72.80;;;;;;2312540;55;20949;-74
2022/02/08 01:21:34;;;;;;;3.17;0.85;;;6.50;72.70;;;;;;2290577;55;20980;-73
2022/02/08 01:24:01;;;;;;;2.22;0.80;;;6.50;72.50;;;;;;2288317;56;20949;-73
2022/02/08 01:26:28;;;;;;;3.67;0.90;;;6.40;72.30;;;;;;2287184;56;20989;-72
2022/02/08 01:29:07;;;;;;;3.05;1.05;;;6.40;72.20;;;;;;2287322;56;21560;-74
2022/02/08 01:31:38;;;;;;;3.28;0.77;;;6.40;72.00;;;;;;2360480;54;20968;-72
2022/02/08 01:37:25;;;;;;;3.85;0.90;;;6.40;71.80;;;;;;2287597;56;20949;-73
2022/02/08 01:40:52;;;;;;;3.47;1.27;;;6.30;71.70;;;;;;2265265;56;20933;-72
2022/02/08 01:45:36;;;;;;;4.07;1.25;;;6.30;71.70;;;;;;2287061;56;20948;-72
2022/02/08 01:48:15;;;;;;;4.35;0.80;;;6.30;71.60;;;;;;2287631;56;21008;-73
2022/02/08 01:50:42;;;;;;;3.28;0.95;;;6.30;71.70;;;;;;2447823;55;20956;-71
2022/02/08 01:53:09;;;;;;;3.05;0.95;;;6.20;71.70;;;;;;2286812;55;20946;-71
2022/02/08 01:55:37;;;;;;;4.85;0.90;;;6.20;71.90;;;;;;2520908;55;20941;-71
2022/02/08 01:58:18;;;;;;;;;;;6.20;72.00;;;;;;2290849;56;20956;-72
2022/02/08 02:00:45;;;;;;;3.78;0.90;;;6.20;70.70;;;;;;2287688;56;20080;-71
2022/02/08 02:03:11;;;;;;;2.87;0.80;;;6.20;72.00;;;;;;2287192;56;20965;-71
2022/02/08 02:05:37;;;;;;;3.70;0.93;;;6.20;72.10;;;;;;2287024;55;21012;-72
2022/02/08 02:08:05;;;;;;;4.22;1.02;;;6.20;72.10;;;;;;2287285;56;20941;-71
2022/02/08 02:10:32;;;;;;;3.80;1.00;;;6.20;72.20;;;;;;2287636;56;21489;-74
2022/02/08 02:13:00;;;;;;;2.58;0.93;;;6.20;72.20;;;;;;2338517;55;21434;-73
2022/02/08 02:15:26;;;;;;;3.55;0.90;;;6.20;72.20;;;;;;2288157;55;21454;-72
2022/02/08 02:17:53;;;;;;;5.82;1.08;;;6.20;72.10;;;;;;2285957;56;20949;-72
2022/02/08 02:20:19;;;;;;;2.28;0.62;;;6.20;71.90;;;;;;2344923;55;21086;-72
2022/02/08 02:22:46;;;;;;;1.85;0.70;;;6.10;71.60;;;;;;2274174;55;20941;-72
2022/02/08 02:25:25;;;;;;;3.22;0.70;;;6.10;71.40;;;;;;2287487;56;21382;-72
2022/02/08 02:27:54;;;;;;;2.60;0.80;;;6.10;71.00;;;;;;2288895;55;21009;-73
2022/02/08 02:30:21;;;;;;;4.10;0.88;;;6.00;70.80;;;;;;2291984;55;20945;-71
2022/02/08 02:32:49;;;;;;;3.17;0.70;;;6.00;70.70;;;;;;2287644;56;21036;-72
2022/02/08 02:35:15;;;;;;;1.85;0.62;;;5.90;70.40;;;;;;2287035;56;21121;-72
2022/02/08 02:37:58;;;;;;;1.85;0.65;;;5.90;70.40;;;;;;2287629;56;21894;-73
2022/02/08 02:40:25;;;;;;;3.85;1.00;;;5.80;70.30;;;;;;2288134;55;20968;-72
2022/02/08 02:42:53;;;;;;;1.85;0.70;;;5.80;70.10;;;;;;2291647;55;20929;-71
2022/02/08 02:45:22;;;;;;;2.00;0.70;;;5.70;70.10;;;;;;2285947;55;21010;-73
2022/02/08 02:47:52;;;;;;;4.57;0.90;;;5.70;70.10;;;;;;2287491;56;20961;-73
2022/02/08 02:50:19;;;;;;;3.53;1.20;;;5.60;70.00;;;;;;2287497;56;21055;-72
2022/02/08 02:52:45;;;;;;;3.35;0.93;;;5.50;70.00;;;;;;2287909;56;20969;-73
2022/02/08 02:55:15;;;;;;;1.92;0.62;;;5.50;70.20;;;;;;2516224;54;21618;-73
2022/02/08 02:57:44;;;;;;;2.67;0.70;;;5.40;70.30;;;;;;2287195;56;20959;-72
2022/02/08 03:00:13;;;;;;;2.83;0.70;;;5.40;70.50;;;;;;2364297;55;21024;-74
2022/02/08 03:02:47;;;;;;;2.30;0.70;;;5.40;70.70;;;;;;2287234;56;20960;-73
2022/02/08 03:05:30;;;;;;;2.97;0.70;;;5.30;70.80;;;;;;2287892;56;21009;-73
2022/02/08 03:18:55;;;;;;;3.42;0.73;;;5.40;72.40;;;;;;2289585;55;21545;-71
2022/02/08 03:21:21;;;;;;;4.30;1.05;;;5.40;72.60;;;;;;2267624;55;21466;-71
2022/02/08 03:23:48;;;;;;;2.60;0.82;;;5.40;72.80;;;;;;2306457;55;20956;-72
2022/02/08 03:26:14;;;;;;;4.20;0.85;;;5.50;73.00;;;;;;2287627;56;20964;-73
2022/02/08 03:28:40;;;;;;;2.37;0.68;;;5.50;73.10;;;;;;2286411;55;21303;-73
2022/02/08 03:31:06;;;;;;;3.87;0.90;;;5.60;73.40;;;;;;2286779;54;21277;-72
2022/02/08 03:33:32;;;;;;;3.67;1.00;;;5.60;73.50;;;;;;2287237;56;20977;-72
2022/02/08 03:35:59;;;;;;;3.60;0.90;;;5.70;73.60;;;;;;2287675;56;20917;-71
2022/02/08 03:38:39;;;;;;;3.08;1.05;;;5.70;73.60;;;;;;2287676;56;20998;-73
2022/02/08 03:41:09;;;;;;;2.13;0.60;;;5.80;73.70;;;;;;2287907;56;20997;-73
2022/02/08 03:43:38;;;;;;;6.12;1.10;;;5.80;73.60;;;;;;2286145;55;21020;-71
2022/02/08 03:46:07;;;;;;;2.12;0.70;;;5.90;73.80;;;;;;2522396;54;21028;-73
2022/02/08 03:48:34;;;;;;;3.15;0.95;;;5.90;73.80;;;;;;2264893;56;20941;-70
2022/02/08 03:51:12;;;;;;;2.80;0.82;;;6.00;73.90;;;;;;2287734;56;20960;-72
2022/02/08 03:53:44;;;;;;;3.70;0.95;;;6.00;73.90;;;;;;2287275;55;20953;-72
2022/02/08 03:56:11;;;;;;;4.57;1.08;;;6.10;73.90;;;;;;2287398;56;20932;-70
2022/02/08 03:58:39;;;;;;;4.43;1.12;;;6.10;73.80;;;;;;2290608;55;20973;-72
2022/02/08 04:06:08;;;;;;;3.17;0.70;;;6.20;74.70;;;;;;2289755;56;20956;-74
2022/02/08 04:08:35;;;;;;;6.03;0.88;;;6.30;73.90;;;;;;2290427;55;21432;-74
2022/02/08 04:11:02;;;;;;;2.47;0.73;;;6.40;74.00;;;;;;2283913;55;21000;-71
2022/02/08 04:13:42;;;;;;;3.12;0.95;;;6.40;74.00;;;;;;2287016;56;20933;-72
2022/02/08 04:16:22;;;;;;;3.85;0.90;;;6.40;74.00;;;;;;2288048;56;21032;-72
2022/02/08 04:19:10;;;;;;;4.68;1.00;;;6.50;74.20;;;;;;2339063;55;21020;-71
2022/02/08 04:33:19;;;;;;;4.53;0.82;;;6.80;74.40;;;;;;2285077;55;21543;-72
2022/02/08 04:36:06;;;;;;;4.47;0.98;;;6.90;74.50;;;;;;2297631;55;21028;-72
2022/02/08 04:38:48;;;;;;;5.32;1.10;;;7.00;74.50;;;;;;2287351;56;20952;-73
2022/02/08 04:41:18;;;;;;;4.72;1.10;;;7.00;74.40;;;;;;2287870;56;21063;-73
2022/02/08 04:44:09;;;;;;;4.35;0.98;;;7.10;74.30;;;;;;2287186;56;21457;-72
2022/02/08 04:46:49;;;;;;;3.67;0.73;;;7.10;74.20;;;;;;2386393;55;21009;-72
2022/02/08 04:49:17;;;;;;;6.50;1.17;;;7.20;74.20;;;;;;2322467;55;21039;-72
2022/02/08 04:51:48;;;;;;;3.78;0.98;;;7.20;73.90;;;;;;2287598;55;21020;-72
2022/02/08 04:55:22;;;;;;;3.33;0.93;;;7.30;74.10;;;;;;2291166;55;21410;-74
2022/02/08 04:58:03;;;;;;;2.55;0.70;;;7.30;73.90;;;;;;2290469;55;21474;-73
2022/02/08 05:01:17;;;;;;;4.40;0.82;;;7.40;73.90;;;;;;2286319;55;20950;-74
2022/02/08 05:29:56;;;;;;;4.60;0.95;;;7.70;73.40;;;;;;2288508;55;20967;-73
2022/02/08 05:35:34;;;;;;;5.35;1.10;;;7.70;73.00;;;;;;2287292;56;20969;-72
2022/02/08 05:46:47;;;;;;;4.28;0.90;;;7.80;73.00;;;;;;2287576;56;20986;-72
2022/02/08 05:49:22;;;;;;;4.05;0.80;;;7.80;72.80;;;;;;2287075;56;20941;-74
2022/02/08 05:52:21;;;;;;;4.90;1.17;;;7.80;72.60;;;;;;2290588;56;21446;-73
2022/02/08 05:54:48;;;;;;;4.43;0.90;;;7.80;72.60;;;;;;2286710;56;21036;-72
2022/02/08 05:57:14;;;;;;;3.40;1.00;;;7.80;72.40;;;;;;2290617;55;20953;-71
2022/02/08 05:59:41;;;;;;;5.50;1.00;;;7.80;72.40;;;;;;2287960;55;20922;-73
2022/02/08 06:02:07;;;;;;;4.37;1.00;;;7.80;72.50;;;;;;2285190;55;20964;-73
2022/02/08 06:04:37;;;;;;;5.28;1.17;;;7.80;72.30;;;;;;2302824;55;21032;-73
2022/02/08 06:07:03;;;;;;;3.25;0.98;;;7.80;72.30;;;;;;2286576;56;21564;-73
2022/02/08 06:09:29;;;;;;;7.43;1.50;;;7.80;72.30;;;;;;2286938;56;20984;-71
2022/02/08 06:11:56;;;;;;;6.22;1.08;;;7.80;72.20;;;;;;2323256;54;20961;-73
2022/02/08 06:14:26;;;;;;;4.22;1.10;;;7.80;72.30;;;;;;2286706;56;20948;-73
2022/02/08 06:16:52;;;;;;;4.32;1.10;;;7.90;72.60;;;;;;2289716;55;20982;-72
2022/02/08 06:19:19;;;;;;;3.08;0.88;;;7.80;72.40;;;;;;2325230;54;20933;-74
2022/02/08 06:21:45;;;;;;;7.07;2.35;;;7.80;72.50;;;;;;2287302;56;21438;-71
2022/02/08 06:24:13;;;;;;;5.90;2.33;;;7.80;73.10;;;;;;2286792;56;20972;-74
2022/02/08 06:26:39;;;;;;;9.48;2.37;;;7.90;73.20;;;;;;2287191;56;20957;-74
2022/02/08 06:29:12;;;;;;;6.43;2.58;;;7.90;72.50;;;;;;2286810;55;20960;-73
2022/02/08 06:31:41;;;;;;;7.50;2.00;;;7.90;72.40;;;;;;2287630;55;20969;-72
2022/02/08 06:34:07;;;;;;;8.07;2.00;;;7.90;72.30;;;;;;2357647;55;21167;-71
2022/02/08 06:36:34;;;;;;;5.43;1.25;;;7.90;72.40;;;;;;2291912;55;20976;-72
2022/02/08 06:39:00;;;;;;;3.35;1.10;;;7.90;72.30;;;;;;2286849;55;20970;-73
2022/02/08 06:41:27;;;;;;;5.93;1.37;;;7.90;72.20;;;;;;2286874;56;21469;-71
2022/02/08 06:43:53;;;;;;;4.10;1.30;;;8.00;72.40;;;;;;2287041;56;20965;-73
2022/02/08 06:46:20;;;;;;;6.72;1.48;;;7.90;72.20;;;;;;2285503;55;20937;-74
2022/02/08 06:48:47;;;;;;;6.03;1.20;;;8.00;72.20;;;;;;2339470;55;21083;-73
2022/02/08 06:51:13;;;;;;;5.68;1.10;;;8.00;72.30;;;;;;2288512;56;21595;-73
2022/02/08 06:53:41;;;;;;;4.28;1.23;;;8.00;72.30;;;;;;2294249;55;20962;-73
2022/02/08 06:56:10;;;;;;;6.15;1.25;;;8.00;72.20;;;;;;2413342;54;21958;-74
2022/02/08 06:58:50;;;;;;;4.18;1.10;;;8.00;72.10;;;;;;2289063;56;21009;-73
2022/02/08 07:01:26;;;;;;;4.07;1.13;;;8.00;72.10;;;;;;2297464;55;20976;-72
2022/02/08 07:03:52;;;;;;;4.57;1.00;;;8.00;71.80;;;;;;2288205;55;20965;-73
2022/02/08 07:06:22;;;;;;;3.35;0.85;;;8.00;72.00;;;;;;2267261;55;21053;-73
2022/02/08 07:08:48;;;;;;;3.72;0.90;;;8.00;71.90;;;;;;2289600;56;20925;-72
2022/02/08 07:11:16;;;;;;;4.43;0.90;;;8.00;72.20;;;;;;2289630;56;20988;-73
2022/02/08 07:13:44;;;;;;;6.80;1.33;;;8.00;72.20;;;;;;2379880;55;21055;-74
2022/02/08 07:16:11;;;;;;;3.10;0.85;;;8.10;72.30;;;;;;2288970;55;20957;-73
2022/02/08 07:18:40;;;;;;;4.22;0.98;;;8.10;72.20;;;;;;2288850;55;21829;-74
2022/02/08 07:21:06;;;;;;;2.95;0.93;;;8.10;72.30;;;;;;2289480;56;21805;-74
2022/02/08 07:23:33;;;;;;;6.18;1.00;;;8.10;72.50;;;;;;2288656;56;20983;-72
2022/02/08 07:25:59;;;;;;;4.55;1.08;;;8.10;72.20;;;;;;2336033;55;21063;-72
2022/02/08 07:28:26;;;;;;;3.62;1.20;;;8.10;72.30;;;;;;2398910;55;24915;-74
2022/02/08 07:31:00;;;;;;;4.72;1.02;;;8.10;72.30;;;;;;2350233;54;21030;-74
2022/02/08 07:33:40;;;;;;;3.03;1.10;;;8.20;72.40;;;;;;2287454;55;21001;-73
2022/02/08 07:36:25;;;;;;;4.37;1.12;;;8.20;72.40;;;;;;2289592;56;20965;-71
2022/02/08 07:38:52;;;;;;;;;;;8.20;72.60;;;;;;2334090;55;21040;-72
2022/02/08 07:44:11;;;;;;;5.82;1.20;;;8.30;72.70;;;;;;2267047;56;21060;-75
2022/02/08 07:46:38;;;;;;;4.72;0.95;;;8.30;72.10;;;;;;2317233;55;20916;-73
2022/02/08 07:49:04;;;;;;;3.65;1.27;;;8.30;72.60;;;;;;2289670;56;21032;-73
2022/02/08 07:51:36;;;;;;;5.40;1.65;;;8.40;72.90;;;;;;2288612;56;20988;-73
2022/02/08 07:54:05;;;;;;;6.10;1.20;;;8.40;72.60;;;;;;2291005;55;20954;-73
2022/02/08 07:56:33;;;;;;;5.97;1.58;;;8.40;72.60;;;;;;2289006;56;20981;-73
2022/02/08 07:59:02;;;;;;;5.07;1.50;;;8.40;72.90;;;;;;2289348;56;20988;-73
2022/02/08 08:01:29;;;;;;;4.78;1.62;;;8.50;72.90;;;;;;2289021;56;20988;-72
2022/02/08 08:03:55;;;;;;;5.72;1.30;;;8.50;73.30;;;;;;2296289;55;20984;-72
2022/02/08 08:06:21;;;;;;;3.95;1.12;;;8.50;73.10;;;;;;2289842;56;21379;-73
2022/02/08 08:08:47;;;;;;;4.53;0.98;;;8.60;73.00;;;;;;2335926;54;20992;-75
2022/02/08 08:11:21;;;;;;;4.47;1.00;;;8.60;73.00;;;;;;2289562;55;20991;-72
2022/02/08 08:14:00;;;;;;;5.12;1.45;;;8.70;73.30;;;;;;2389023;54;20964;-72
2022/02/08 08:16:43;;;;;;;4.43;1.08;;;8.70;73.10;;;;;;2501215;54;21414;-72
2022/02/08 08:19:23;;;;;;;6.30;1.50;;;8.80;73.60;;;;;;2289152;56;20953;-73
2022/02/08 08:21:49;;;;;;;8.48;1.52;;;8.80;73.60;;;;;;2289464;56;21021;-74
2022/02/08 08:24:16;;;;;;;4.00;1.17;;;8.90;73.10;;;;;;2298856;55;21314;-71
2022/02/08 08:26:42;;;;;;;4.30;1.08;;;9.00;73.10;;;;;;2288988;56;21398;-74
2022/02/08 08:29:09;;;;;;;5.72;1.12;;;9.00;72.90;;;;;;2374753;54;20951;-73
2022/02/08 08:31:38;;;;;;;6.97;1.30;;;9.00;72.80;;;;;;2290040;55;21000;-72
2022/02/08 08:34:06;;;;;;;6.12;1.30;;;9.00;72.20;;;;;;2289289;56;21068;-75
2022/02/08 08:36:32;;;;;;;3.80;1.02;;;9.10;73.10;;;;;;2289578;55;20941;-72
2022/02/08 08:38:59;;;;;;;3.97;1.15;;;9.10;73.30;;;;;;2289847;55;21448;-72
2022/02/08 08:41:45;;;;;;;4.43;1.23;;;9.20;72.80;;;;;;2288287;56;21310;-73
2022/02/08 08:44:39;;;;;;;4.20;1.60;;;9.20;73.00;;;;;;2292311;55;21041;-75
2022/02/08 08:59:06;;;;;;;6.30;1.30;;;9.40;70.60;;;;;;2286700;55;21014;-72
2022/02/08 09:01:32;;;;;;;4.12;1.33;;;9.60;70.90;;;;;;2288006;55;21068;-73
2022/02/08 09:03:58;;;;;;;7.50;1.73;;;9.60;71.40;;;;;;2291511;56;20964;-72
2022/02/08 09:06:25;;;;;;;4.93;1.25;;;9.60;72.10;;;;;;2300369;55;21029;-75
2022/02/08 09:08:51;;;;;;;6.45;1.60;;;9.70;71.70;;;;;;2279245;55;21031;-73
2022/02/08 09:11:34;;;;;;;8.77;1.52;;;9.70;71.60;;;;;;2290200;56;20964;-73
2022/02/08 09:14:11;;;;;;;4.35;1.00;;;9.70;71.90;;;;;;2288671;55;22266;-74
2022/02/08 09:25:13;;;;;;;7.62;1.40;;;9.90;71.60;;;;;;2289667;55;21715;-72
2022/02/08 09:28:50;;;;;;;5.75;1.37;;;10.00;70.10;;;;;;2437904;55;20964;-74
2022/02/08 09:31:18;;;;;;;7.57;1.23;;;10.00;70.20;;;;;;2289446;55;20973;-74
2022/02/08 09:33:49;;;;;;;5.60;1.10;;;10.10;70.10;;;;;;2332781;55;21051;-73
2022/02/08 09:36:21;;;;;;;6.65;1.30;;;10.20;71.70;;;;;;2289191;56;21057;-72
2022/02/08 09:38:47;;;;;;;6.93;1.40;;;10.30;73.30;;;;;;2289950;56;20993;-73
2022/02/08 09:41:24;;;;;;;5.70;1.45;;;10.60;75.60;;;;;;2288814;56;20972;-74
2022/02/08 09:43:50;;;;;;;5.85;1.60;;;10.80;76.60;;;;;;2289135;56;20909;-73
2022/02/08 09:46:17;;;;;;;5.57;1.40;;;11.10;73.90;;;;;;2289689;56;20996;-72
2022/02/08 09:48:49;;;;;;;6.68;1.77;;;11.20;73.60;;;;;;2288633;55;20946;-74
2022/02/08 09:51:17;;;;;;;7.87;1.95;;;11.30;72.70;;;;;;2423326;55;21024;-72
2022/02/08 09:53:43;;;;;;;6.18;1.42;;;11.50;72.20;;;;;;2289259;56;20965;-75
2022/02/08 09:56:11;;;;;;;5.00;1.52;;;11.60;73.80;;;;;;2294974;55;20913;-76
2022/02/08 09:58:37;;;;;;;5.40;1.80;;;11.90;74.20;;;;;;2314177;54;20945;-73
2022/02/08 10:01:14;;;;;;;7.43;1.70;;;12.00;74.10;;;;;;2289626;56;20980;-73
2022/02/08 10:04:41;;;;;;;8.07;1.77;;;12.10;71.90;;;;;;2289550;55;21513;-72
2022/02/08 10:07:12;;;;;;;6.72;1.80;;;12.10;70.70;;;;;;2341369;55;21032;-74
2022/02/08 10:09:38;;;;;;;7.80;1.60;;;12.20;72.00;;;;;;2297573;55;21059;-75
2022/02/08 10:12:08;;;;;;;11.07;1.58;;;12.20;72.40;;;;;;2384254;54;21006;-73
2022/02/08 10:19:07;;;;;;;10.73;2.08;;;12.30;70.60;;;;;;2288274;55;20920;-72
2022/02/08 10:24:22;;;;;;;7.93;1.27;;;12.50;71.70;;;;;;2266828;56;21458;-72
2022/02/08 10:30:09;;;;;;;7.72;2.47;;;12.80;73.90;;;;;;2277577;55;21014;-73
2022/02/08 10:38:14;;;;;;;6.43;1.40;;;13.90;77.00;;;;;;2288840;56;20972;-74
2022/02/08 10:40:41;;;;;;;7.57;1.65;;;14.30;79.10;;;;;;2289556;56;21036;-73
2022/02/08 10:43:09;;;;;;;6.22;1.23;;;14.50;78.90;;;;;;2288905;55;21057;-73
2022/02/08 10:45:39;;;;;;;8.88;1.27;;;14.90;79.20;;;;;;2287717;55;20943;-73
2022/02/08 10:48:07;;;;;;;4.80;1.10;;;15.10;76.30;;;;;;2289615;56;20936;-74
2022/02/08 10:50:42;;;;;;;5.78;1.33;;;15.30;75.90;;;;;;2288677;56;20941;-74
2022/02/08 10:53:10;;;;;;;4.82;1.20;;;15.50;73.90;;;;;;2289769;55;20968;-74
2022/02/08 10:55:48;;;;;;;5.62;1.12;;;15.60;74.10;;;;;;2289086;56;20972;-74
2022/02/08 10:58:26;;;;;;;4.97;1.00;;;15.60;73.70;;;;;;2373735;55;21120;-75
2022/02/08 11:01:13;;;;;;;4.65;1.12;;;15.60;73.00;;;;;;2289794;56;21394;-74
2022/02/08 11:03:56;;;;;;;4.87;1.30;;;15.70;73.20;;;;;;2288847;56;20945;-74
2022/02/08 11:12:14;;;;;;;4.28;1.00;;;15.90;72.00;;;;;;2288909;56;20945;-74
2022/02/08 11:19:39;;;;;;;5.87;1.33;;;16.00;73.90;;;;;;2288709;56;21387;-74
2022/02/08 11:23:06;;;;;;;4.20;1.12;;;16.20;74.60;;;;;;2346854;55;21521;-74
2022/02/08 11:25:40;;;;;;;5.43;1.20;;;16.30;74.00;;;;;;2289045;56;21426;-74
2022/02/08 11:28:28;;;;;;;4.72;1.17;;;16.50;74.80;;;;;;2309193;54;21004;-74
2022/02/08 11:31:20;;;;;;;5.68;1.20;;;16.70;73.30;;;;;;2289336;56;21466;-73
2022/02/08 11:34:12;;;;;;;5.85;1.77;;;16.70;70.30;;;;;;2289489;56;21012;-74
2022/02/08 11:43:28;;;;;;;;;;;;;;;;;;;;;
2022/02/08 11:46:06;;;;;;;8.13;2.28;;;16.40;67.40;;;;;;2446769;55;21465;-73
2022/02/08 11:49:46;;;;;;;6.60;1.58;;;16.10;67.30;;;;;;2289231;55;20944;-73
2022/02/08 11:52:31;;;;;;;6.40;1.27;;;16.10;68.60;;;;;;2289214;56;21013;-73
2022/02/08 11:58:35;;;;;;;8.57;1.73;;;16.00;71.10;;;;;;2289559;56;21505;-74
2022/02/08 12:01:15;;;;;;;7.65;2.10;;;16.00;71.60;;;;;;2292154;56;21050;-73
2022/02/08 12:10:25;;;;;;;7.85;2.20;;;16.10;70.80;;;;;;2379796;55;20976;-73
2022/02/08 12:13:11;;;;;;;4.82;1.77;;;16.10;68.80;;;;;;2287676;55;20956;-73
2022/02/08 12:35:02;;;;;;;5.20;1.23;;;15.50;67.40;;;;;;2289058;55;21845;-73
2022/02/08 12:48:59;;;;;;;4.93;1.40;;;15.60;72.80;;;;;;2289054;56;20980;-73
2022/02/08 14:03:37;;;;;;;3.87;1.20;;;16.30;69.00;;;;;;2288915;56;21545;-74
2022/02/08 14:06:17;;;;;;;3.78;1.15;;;16.20;69.50;;;;;;2289410;55;21759;-74
2022/02/08 14:09:06;;;;;;;5.12;1.25;;;16.30;69.30;;;;;;2288310;55;21023;-75
2022/02/08 14:11:58;;;;;;;6.15;1.35;;;16.20;69.80;;;;;;2290545;54;21006;-75
2022/02/08 14:14:43;;;;;;;4.30;1.58;;;16.30;70.60;;;;;;2288092;55;20977;-74
2022/02/08 14:21:38;;;;;;;5.45;1.50;;;16.30;69.70;;;;;;2289249;56;21056;-74
2022/02/08 14:29:43;;;;;;;5.25;1.27;;;16.20;69.40;;;;;;2288014;55;21016;-73
2022/02/08 14:32:25;;;;;;;3.83;1.33;;;16.20;69.50;;;;;;2289299;56;20957;-73
2022/02/08 15:08:27;;;;;;;4.82;1.73;;;15.40;68.50;;;;;;2295825;55;21079;-74
2022/02/08 15:11:01;;;;;;;6.70;2.08;;;15.30;68.60;;;;;;2280170;55;20948;-73
2022/02/08 15:13:27;;;;;;;5.53;1.62;;;15.20;68.80;;;;;;2291053;56;20972;-72
2022/02/08 15:16:35;;;;;;;4.90;1.30;;;15.10;68.50;;;;;;2288654;55;20996;-73
2022/02/08 15:19:02;;;;;;;6.82;1.40;;;15.00;68.30;;;;;;2316728;55;21457;-73
2022/02/08 15:21:34;;;;;;;8.10;1.50;;;15.00;68.40;;;;;;2288431;55;20982;-73
2022/02/08 15:24:02;;;;;;;5.62;1.33;;;14.90;68.60;;;;;;2285390;55;21012;-73
2022/02/08 15:26:29;;;;;;;7.18;1.80;;;14.90;68.90;;;;;;2289179;55;21369;-73
2022/02/08 15:29:02;;;;;;;8.70;1.52;;;14.90;68.90;;;;;;2289561;55;20962;-74
2022/02/08 15:31:29;;;;;;;5.07;1.48;;;14.80;69.00;;;;;;2266303;56;20932;-73
2022/02/08 15:33:57;;;;;;;5.87;1.75;;;14.80;69.00;;;;;;2288075;55;21013;-74
2022/02/08 15:36:24;;;;;;;4.72;1.30;;;14.70;69.10;;;;;;2289884;55;20961;-74
2022/02/08 15:38:54;;;;;;;6.03;1.33;;;14.70;69.20;;;;;;2286385;55;21028;-73
2022/02/08 15:41:20;;;;;;;5.40;1.35;;;14.70;69.20;;;;;;2288646;56;20968;-72
2022/02/08 15:43:50;;;;;;;6.40;1.48;;;14.70;69.10;;;;;;2288640;56;21770;-72
2022/02/08 15:46:23;;;;;;;8.02;1.92;;;14.60;69.10;;;;;;2289154;56;21001;-73
2022/02/08 15:48:52;;;;;;;4.55;1.33;;;14.60;69.20;;;;;;2287771;55;21023;-72
2022/02/08 15:57:48;;;;;;;4.07;1.33;;;14.50;69.20;;;;;;2449609;55;21404;-74
2022/02/08 16:08:36;;;;;;;5.12;1.60;;;14.30;69.30;;;;;;2379079;55;20921;-73
2022/02/08 16:11:59;;;;;;;8.40;1.62;;;14.30;69.30;;;;;;2267372;56;20929;-73
2022/02/08 16:14:47;;;;;;;5.90;1.90;;;14.30;69.10;;;;;;2289124;56;21458;-73
2022/02/08 16:17:29;;;;;;;4.03;1.40;;;14.20;68.80;;;;;;2289183;55;21260;-74
2022/02/08 16:20:10;;;;;;;5.47;1.75;;;14.10;68.60;;;;;;2289078;56;20962;-74
2022/02/08 16:52:39;;;;;;;4.20;1.90;;;13.10;67.60;;;;;;2289551;56;21044;-72
2022/02/08 16:55:43;;;;;;;4.72;1.52;;;13.00;67.50;;;;;;2295016;55;21009;-72
2022/02/08 16:58:23;;;;;;;6.10;1.48;;;12.80;67.40;;;;;;2289516;56;21955;-73
2022/02/08 17:00:56;;;;;;;4.05;1.67;;;12.70;67.50;;;;;;2288917;55;20976;-73
2022/02/08 17:03:34;;;;;;;4.85;1.40;;;12.50;67.20;;;;;;2289553;56;20976;-72
2022/02/08 17:06:01;;;;;;;4.07;1.40;;;12.40;67.20;;;;;;2289468;55;20965;-74
2022/02/08 17:08:27;;;;;;;4.55;1.25;;;12.30;67.20;;;;;;2344521;54;20960;-74
2022/02/08 17:10:58;;;;;;;6.22;1.80;;;12.20;67.20;;;;;;2289694;55;20956;-73
2022/02/08 17:18:12;;;;;;;6.37;1.50;;;12.00;67.20;;;;;;2289160;56;20941;-73
2022/02/08 17:48:35;;;;;;;6.40;1.45;;;10.80;67.90;;;;;;2288870;55;20960;-73
2022/02/08 17:51:02;;;;;;;6.50;1.92;;;10.80;68.10;;;;;;2301933;55;20956;-73
2022/02/08 17:53:33;;;;;;;5.00;1.80;;;10.70;68.20;;;;;;2287220;55;21004;-72
2022/02/08 17:56:01;;;;;;;5.15;1.67;;;10.60;68.10;;;;;;2289285;56;20956;-72
2022/02/08 17:58:27;;;;;;;5.50;1.50;;;10.50;68.10;;;;;;2385580;55;21584;-72
2022/02/08 18:00:55;;;;;;;5.32;1.58;;;10.50;68.30;;;;;;2287871;55;20956;-71
2022/02/08 18:03:22;;;;;;;7.25;1.75;;;10.40;68.40;;;;;;2288345;55;21032;-72
2022/02/08 18:05:49;;;;;;;3.45;1.48;;;10.40;68.50;;;;;;2337417;55;20969;-72
2022/02/08 18:08:15;;;;;;;4.60;1.80;;;10.30;68.50;;;;;;2289276;56;20953;-73
2022/02/08 18:10:44;;;;;;;5.47;1.80;;;10.30;68.50;;;;;;2289255;56;20952;-71
2022/02/08 18:13:15;;;;;;;5.15;1.40;;;10.20;68.50;;;;;;2432088;55;20932;-71
2022/02/08 18:15:41;;;;;;;4.30;1.62;;;10.20;68.60;;;;;;2289247;56;21459;-73
2022/02/08 18:18:19;;;;;;;6.50;1.70;;;10.10;68.60;;;;;;2327178;54;21329;-72
2022/02/08 18:21:11;;;;;;;3.70;1.23;;;10.00;68.60;;;;;;2340265;55;20992;-73
2022/02/08 18:23:48;;;;;;;6.82;1.62;;;10.00;68.60;;;;;;2289101;56;20969;-71
2022/02/08 18:54:38;;;;;;;13.00;5.47;;;9.60;70.60;;;;;;2324903;55;21668;-72
2022/02/08 18:57:18;;;;;;;7.18;2.95;;;9.50;70.80;;;;;;2405489;54;20980;-72
2022/02/08 19:14:04;;;;;;;2.87;1.10;;;9.60;72.30;;;;;;2291026;55;20957;-73
2022/02/08 19:18:28;;;;;;;3.95;1.55;;;9.60;72.40;;;;;;2289283;56;21386;-74
2022/02/08 19:24:56;;;;;;;4.95;1.37;;;9.70;72.60;;;;;;2288265;56;21768;-73
2022/02/08 19:27:23;;;;;;;5.03;2.17;;;9.70;72.70;;;;;;2287516;56;21056;-72
2022/02/08 19:29:49;;;;;;;5.78;2.55;;;9.80;72.80;;;;;;2432620;54;21004;-72
2022/02/08 19:32:16;;;;;;;6.60;2.37;;;9.80;72.90;;;;;;2288055;56;20964;-73
2022/02/08 19:34:45;;;;;;;5.07;1.98;;;9.80;73.00;;;;;;2288699;56;21012;-71
2022/02/08 19:37:12;;;;;;;6.55;2.30;;;9.80;73.00;;;;;;2288503;56;20936;-73
2022/02/08 19:39:40;;;;;;;23.55;11.23;;;9.90;73.10;;;;;;2287539;56;20977;-73
2022/02/08 19:42:07;;;;;;;23.12;12.23;;;9.90;73.10;;;;;;2303000;55;21248;-72
2022/02/08 19:44:35;;;;;;;24.70;13.15;;;10.00;72.10;;;;;;2288517;56;20936;-70
2022/02/08 19:47:02;;;;;;;17.60;8.60;;;10.00;72.00;;;;;;2289521;55;20993;-72
2022/02/08 19:49:28;;;;;;;11.48;6.18;;;10.00;71.90;;;;;;2274990;55;21001;-72
2022/02/08 19:51:55;;;;;;;10.50;5.30;;;10.00;71.70;;;;;;2281746;55;20980;-73
2022/02/08 19:54:25;;;;;;;9.38;4.18;;;10.00;71.50;;;;;;2288674;56;21079;-72
2022/02/08 19:57:04;;;;;;;6.53;2.90;;;10.00;71.50;;;;;;2289935;55;21001;-73
2022/02/08 19:59:36;;;;;;;6.60;3.00;;;10.10;71.50;;;;;;2311766;55;20996;-72
2022/02/08 20:02:08;;;;;;;5.68;2.30;;;10.10;71.50;;;;;;2300376;55;20965;-71
2022/02/08 20:04:34;;;;;;;4.85;2.10;;;10.10;71.40;;;;;;2418261;54;21003;-72
2022/02/08 20:07:02;;;;;;;5.78;2.20;;;10.10;71.50;;;;;;2288559;56;20951;-74
2022/02/08 20:09:29;;;;;;;4.97;1.98;;;10.10;71.50;;;;;;2289062;56;20984;-74
2022/02/08 20:12:05;;;;;;;6.95;2.15;;;10.10;71.60;;;;;;2288764;56;21000;-73